createdAt,value
2017-07-05T19:11:48.555Z,23.80
2017-07-05T19:14:22.441Z,23.60
2017-07-05T19:16:56.396Z,23.40
2017-07-05T19:19:30.537Z,23.40
2017-07-05T19:22:04.359Z,23.10
2017-07-05T19:24:38.225Z,23.00
2017-07-05T19:27:12.052Z,23.00
2017-07-05T19:29:47.003Z,22.80
2017-07-05T19:32:21.724Z,22.60
2017-07-05T19:34:55.585Z,22.50
2017-07-05T19:37:29.379Z,22.50
2017-07-05T19:40:05.079Z,22.20
2017-07-05T19:42:38.746Z,22.20
2017-07-05T19:45:13.490Z,22.20
2017-07-05T19:47:47.936Z,21.90
2017-07-05T19:50:21.731Z,21.90
2017-07-05T19:52:55.640Z,21.80
2017-07-05T19:55:30.496Z,21.80
2017-07-05T19:58:04.420Z,21.60
2017-07-05T20:00:38.289Z,21.50
2017-07-05T20:03:12.305Z,21.50
2017-07-05T20:05:47.297Z,21.30
2017-07-05T20:08:22.069Z,21.30
2017-07-05T20:10:55.805Z,21.20
2017-07-05T20:13:29.559Z,21.20
2017-07-05T20:16:04.391Z,21.10
2017-07-05T20:18:38.410Z,21.00
2017-07-05T20:21:13.700Z,20.90
2017-07-05T20:23:48.140Z,20.80
2017-07-05T20:26:23.127Z,20.80
2017-07-05T20:28:57.807Z,20.50
2017-07-05T20:31:31.635Z,20.40
2017-07-05T20:34:05.480Z,20.40
2017-07-05T20:36:51.892Z,20.40
2017-07-05T20:39:27.298Z,20.40
2017-07-05T20:42:03.001Z,20.40
2017-07-05T20:44:39.910Z,20.40
2017-07-05T20:47:13.586Z,20.40
2017-07-05T20:49:49.248Z,20.30
2017-07-05T20:52:23.046Z,20.20
2017-07-05T20:54:56.813Z,20.30
2017-07-05T20:57:30.648Z,20.30
2017-07-05T21:00:04.743Z,20.10
2017-07-05T21:02:38.564Z,20.20
2017-07-05T21:05:12.916Z,20.00
2017-07-05T21:07:46.966Z,20.10
2017-07-05T21:10:21.730Z,20.00
2017-07-05T21:12:56.206Z,20.00
2017-07-05T21:15:30.098Z,19.90
2017-07-05T21:18:04.130Z,19.80
2017-07-05T21:20:37.877Z,19.70
2017-07-05T21:23:13.796Z,19.50
2017-07-05T21:25:48.823Z,19.60
2017-07-05T21:28:22.587Z,19.60
2017-07-05T21:30:56.381Z,19.90
2017-07-05T21:33:31.060Z,19.90
2017-07-05T21:36:04.871Z,19.90
2017-07-05T21:38:38.783Z,20.00
2017-07-05T21:41:12.531Z,20.20
2017-07-05T21:43:46.239Z,20.40
2017-07-05T21:46:20.042Z,20.40
2017-07-05T21:48:53.961Z,20.00
2017-07-05T21:51:27.877Z,19.90
2017-07-05T21:54:01.601Z,19.70
2017-07-05T21:56:35.447Z,19.50
2017-07-05T21:59:09.161Z,19.40
2017-07-05T22:01:42.849Z,19.20
2017-07-05T22:04:16.449Z,19.10
2017-07-05T22:06:51.196Z,18.80
2017-07-05T22:09:25.022Z,18.70
2017-07-05T22:11:58.678Z,18.70
2017-07-05T22:14:32.447Z,18.60
2017-07-05T22:17:06.465Z,18.40
2017-07-05T22:19:40.263Z,18.30
2017-07-05T22:22:13.935Z,18.20
2017-07-05T22:24:47.916Z,18.10
2017-07-05T22:27:21.663Z,18.00
2017-07-05T22:29:55.981Z,18.00
2017-07-05T22:32:29.658Z,17.90
2017-07-05T22:35:03.541Z,17.90
2017-07-05T22:37:37.391Z,17.90
2017-07-05T22:40:11.290Z,18.00
2017-07-05T22:42:45.015Z,18.10
2017-07-05T22:45:19.006Z,18.00
2017-07-05T22:47:52.675Z,18.00
2017-07-05T22:50:26.482Z,18.20
2017-07-05T22:53:00.234Z,18.40
2017-07-05T22:55:34.169Z,18.50
2017-07-05T22:58:07.869Z,18.10
2017-07-05T23:00:41.629Z,18.10
2017-07-05T23:03:16.679Z,17.90
2017-07-05T23:05:50.831Z,17.90
2017-07-05T23:08:24.580Z,17.90
2017-07-05T23:10:58.475Z,17.80
2017-07-05T23:13:32.185Z,17.70
2017-07-05T23:16:06.826Z,17.40
2017-07-05T23:18:40.689Z,17.40
2017-07-05T23:21:14.463Z,17.40
2017-07-05T23:23:48.295Z,17.20
2017-07-05T23:29:21.419Z,17.10
2017-07-05T23:31:55.928Z,17.20
2017-07-05T23:34:29.633Z,17.30
2017-07-05T23:37:03.363Z,17.30
2017-07-05T23:39:37.928Z,17.30
2017-07-05T23:42:11.697Z,17.20
2017-07-05T23:44:45.351Z,17.40
2017-07-05T23:47:19.109Z,17.30
2017-07-05T23:49:52.868Z,17.20
2017-07-05T23:52:26.682Z,17.10
2017-07-05T23:55:00.452Z,17.10
2017-07-05T23:57:34.243Z,17.00
